createdAt,value
2018-04-14T00:03:52.145Z,6.60
2018-04-14T00:08:25.356Z,6.60
2018-04-14T00:12:58.598Z,6.60
2018-04-14T00:17:32.554Z,6.40
2018-04-14T00:22:05.757Z,6.30
2018-04-14T00:26:38.947Z,6.40
2018-04-14T00:31:12.919Z,6.20
2018-04-14T00:35:46.366Z,6.10
2018-04-14T00:40:21.055Z,6.00
2018-04-14T00:44:54.241Z,6.00
2018-04-14T00:49:27.498Z,6.20
2018-04-14T00:54:00.733Z,6.10
2018-04-14T00:58:34.949Z,6.10
2018-04-14T01:03:08.166Z,6.00
2018-04-14T01:07:42.172Z,6.00
2018-04-14T01:12:15.407Z,5.90
2018-04-14T01:16:49.415Z,5.70
2018-04-14T01:21:22.627Z,5.60
2018-04-14T01:25:57.333Z,5.40
2018-04-14T01:30:30.567Z,5.30
2018-04-14T01:35:03.789Z,5.10
2018-04-14T01:39:37.033Z,5.20
2018-04-14T01:44:10.283Z,5.30
2018-04-14T01:48:43.527Z,5.40
2018-04-14T01:53:17.490Z,5.40
2018-04-14T01:57:50.744Z,5.30
2018-04-14T02:02:24.873Z,5.40
2018-04-14T02:06:58.872Z,5.40
2018-04-14T02:11:32.088Z,5.30
2018-04-14T02:16:05.319Z,5.20
2018-04-14T02:20:39.311Z,4.70
2018-04-14T02:25:12.563Z,4.70
2018-04-14T02:29:46.606Z,4.80
2018-04-14T02:34:19.868Z,4.80
2018-04-14T02:38:53.359Z,4.70
2018-04-14T02:43:26.567Z,4.80
2018-04-14T02:47:59.815Z,4.60
2018-04-14T02:52:33.818Z,5.00
2018-04-14T02:57:07.060Z,4.90
2018-04-14T03:01:41.028Z,4.80
2018-04-14T03:06:14.193Z,4.70
2018-04-14T03:10:48.221Z,4.40
2018-04-14T03:15:21.405Z,4.40
2018-04-14T03:19:54.591Z,4.50
2018-04-14T03:24:27.961Z,4.50
2018-04-14T03:29:01.243Z,4.50
2018-04-14T03:33:34.542Z,4.40
2018-04-14T03:38:07.860Z,4.40
2018-04-14T03:42:41.863Z,4.40
2018-04-14T03:47:15.057Z,4.30
2018-04-14T03:51:49.036Z,4.30
2018-04-14T03:56:22.222Z,4.20
2018-04-14T04:00:56.170Z,4.40
2018-04-14T04:05:29.397Z,4.30
2018-04-14T04:10:02.588Z,4.40
2018-04-14T04:14:35.867Z,4.30
2018-04-14T04:19:21.738Z,4.10
2018-04-14T04:24:06.749Z,4.10
2018-04-14T04:28:41.711Z,4.00
2018-04-14T04:33:15.016Z,4.00
2018-04-14T04:37:48.220Z,4.00
2018-04-14T04:42:22.297Z,4.10
2018-04-14T04:46:55.659Z,4.00
2018-04-14T04:51:29.695Z,4.00
2018-04-14T04:56:02.855Z,4.00
2018-04-14T05:00:36.085Z,4.20
2018-04-14T05:05:10.041Z,4.40
2018-04-14T05:09:44.029Z,4.40
2018-04-14T05:14:18.076Z,4.40
2018-04-14T05:18:52.297Z,4.40
2018-04-14T05:23:26.492Z,4.40
2018-04-14T05:27:59.755Z,4.30
2018-04-14T05:32:33.143Z,4.40
2018-04-14T05:37:07.136Z,4.60
2018-04-14T05:41:40.600Z,4.50
2018-04-14T05:46:13.903Z,4.70
2018-04-14T05:50:47.294Z,5.00
2018-04-14T05:55:21.336Z,5.30
2018-04-14T05:59:54.580Z,5.20
2018-04-14T06:04:27.949Z,5.30
2018-04-14T06:09:02.029Z,5.80
2018-04-14T06:13:35.291Z,5.70
2018-04-14T06:18:09.301Z,6.50
2018-04-14T06:22:43.328Z,6.80
2018-04-14T06:27:17.561Z,6.90
2018-04-14T06:31:50.806Z,6.80
2018-04-14T06:36:24.011Z,7.10
2018-04-14T06:40:57.280Z,7.40
2018-04-14T06:45:30.474Z,7.60
2018-04-14T06:50:03.686Z,7.80
2018-04-14T06:54:36.922Z,8.20
2018-04-14T06:59:10.110Z,8.30
2018-04-14T07:03:44.083Z,8.60
2018-04-14T07:08:17.997Z,8.50
2018-04-14T07:12:52.017Z,9.10
2018-04-14T07:17:25.244Z,9.00
2018-04-14T07:22:00.876Z,9.90
2018-04-14T07:26:34.149Z,10.50
2018-04-14T07:31:08.114Z,11.60
2018-04-14T07:35:41.335Z,11.50
2018-04-14T07:40:14.559Z,12.20
2018-04-14T07:44:47.786Z,13.00
2018-04-14T07:49:22.479Z,15.00
2018-04-14T07:53:55.674Z,15.00
2018-04-14T07:58:28.957Z,15.80
2018-04-14T08:03:02.993Z,17.80
2018-04-14T08:07:37.006Z,18.80
2018-04-14T08:12:10.998Z,20.00
2018-04-14T08:16:44.189Z,19.90
2018-04-14T08:21:17.391Z,20.50
2018-04-14T08:25:50.658Z,21.00
2018-04-14T08:30:24.628Z,22.00
2018-04-14T08:34:57.866Z,21.90
2018-04-14T08:39:32.594Z,22.90
2018-04-14T08:44:05.771Z,22.90
2018-04-14T08:48:38.954Z,24.00
2018-04-14T08:53:12.901Z,26.40
2018-04-14T08:57:46.114Z,26.20
2018-04-14T09:02:19.338Z,25.10
2018-04-14T09:06:52.883Z,25.80
2018-04-14T09:11:26.056Z,26.30
2018-04-14T09:15:59.314Z,26.40
2018-04-14T09:20:33.318Z,25.40
2018-04-14T09:25:06.548Z,25.30
2018-04-14T09:29:40.547Z,27.10
2018-04-14T09:34:14.527Z,26.80
2018-04-14T09:38:47.734Z,26.70
2018-04-14T09:43:20.936Z,28.20
2018-04-14T09:47:54.183Z,27.60
2018-04-14T09:52:27.438Z,28.70
2018-04-14T09:57:00.656Z,27.80
2018-04-14T10:01:33.913Z,27.50
2018-04-14T10:06:07.121Z,27.60
2018-04-14T10:10:40.423Z,27.80
2018-04-14T10:15:13.763Z,27.50
2018-04-14T10:19:47.776Z,28.60
2018-04-14T10:24:21.006Z,28.50
2018-04-14T10:28:54.237Z,28.60
2018-04-14T10:33:27.435Z,28.90
2018-04-14T10:38:00.793Z,28.40
2018-04-14T10:42:34.032Z,26.00
2018-04-14T10:47:08.003Z,22.70
2018-04-14T10:51:41.238Z,22.60
2018-04-14T10:56:14.462Z,23.10
2018-04-14T11:00:47.706Z,23.60
2018-04-14T11:05:23.265Z,24.00
2018-04-14T11:09:56.547Z,24.20
2018-04-14T11:14:33.254Z,24.50
2018-04-14T11:19:07.886Z,24.40
2018-04-14T11:23:41.864Z,25.30
2018-04-14T11:28:15.019Z,25.20
2018-04-14T11:32:49.288Z,28.20
2018-04-14T11:37:22.647Z,28.10
2018-04-14T11:41:56.677Z,27.80
2018-04-14T11:46:30.815Z,27.60
2018-04-14T11:51:05.133Z,26.10
2018-04-14T11:55:39.094Z,25.10
2018-04-14T12:00:12.305Z,25.00
2018-04-14T12:04:45.555Z,24.20
2018-04-14T12:09:20.029Z,25.10
2018-04-14T12:13:53.377Z,25.10
2018-04-14T12:18:26.540Z,24.00
2018-04-14T12:22:59.730Z,25.40
2018-04-14T12:27:33.724Z,26.60
2018-04-14T12:32:06.964Z,26.50
2018-04-14T12:36:40.957Z,27.10
2018-04-14T12:41:14.205Z,27.00
2018-04-14T12:45:47.405Z,27.50
2018-04-14T12:50:21.350Z,26.20
2018-04-14T12:54:55.657Z,26.10
2018-04-14T12:59:29.764Z,26.00
2018-04-14T13:04:03.014Z,25.90
2018-04-14T13:08:36.178Z,26.90
2018-04-14T13:13:09.428Z,27.10
2018-04-14T13:17:43.093Z,25.60
2018-04-14T13:22:16.290Z,23.50
2018-04-14T13:26:49.474Z,22.90
2018-04-14T13:31:22.719Z,22.40
2018-04-14T13:35:56.156Z,22.60
2018-04-14T13:40:30.098Z,24.00
2018-04-14T13:45:04.135Z,24.90
2018-04-14T13:49:37.422Z,24.80
2018-04-14T13:54:10.662Z,24.90
2018-04-14T13:58:43.896Z,24.50
2018-04-14T14:03:17.098Z,23.80
2018-04-14T14:07:50.335Z,22.10
2018-04-14T14:12:25.187Z,22.00
2018-04-14T14:16:59.220Z,22.80
2018-04-14T14:21:34.484Z,22.90
2018-04-14T14:26:08.455Z,22.80
2018-04-14T14:30:41.795Z,22.80
2018-04-14T14:35:16.731Z,22.40
2018-04-14T14:39:51.202Z,22.10
2018-04-14T14:44:24.463Z,22.00
2018-04-14T14:48:57.698Z,21.90
2018-04-14T14:53:31.010Z,21.80
2018-04-14T14:58:04.261Z,21.90
2018-04-14T15:02:37.487Z,22.00
2018-04-14T15:07:10.690Z,21.80
2018-04-14T15:11:43.917Z,21.60
2018-04-14T15:16:20.756Z,21.30
2018-04-14T15:20:55.026Z,20.60
2018-04-14T15:25:28.252Z,20.40
2018-04-14T15:30:01.453Z,20.60
2018-04-14T15:34:34.700Z,20.40
2018-04-14T15:39:08.825Z,20.30
2018-04-14T15:43:42.141Z,20.30
2018-04-14T15:48:15.350Z,20.30
2018-04-14T15:52:48.594Z,20.40
2018-04-14T15:57:21.829Z,20.30
2018-04-14T16:01:56.594Z,20.20
2018-04-14T16:06:30.570Z,20.30
2018-04-14T16:11:03.778Z,20.10
2018-04-14T16:20:58.185Z,19.90
2018-04-14T16:25:32.455Z,19.80
2018-04-14T16:30:05.702Z,19.80
2018-04-14T16:34:40.844Z,19.80
2018-04-14T16:39:15.486Z,19.60
2018-04-14T16:43:51.202Z,19.70
2018-04-14T16:48:24.550Z,19.70
2018-04-14T16:53:00.384Z,19.90
2018-04-14T16:57:33.659Z,19.90
2018-04-14T17:02:14.852Z,19.90
2018-04-14T17:06:53.205Z,19.90
2018-04-14T17:11:27.252Z,19.90
2018-04-14T17:16:00.456Z,19.80
2018-04-14T17:20:33.719Z,19.50
2018-04-14T17:25:07.800Z,19.10
2018-04-14T17:29:41.024Z,19.00
2018-04-14T17:34:14.577Z,18.90
2018-04-14T17:38:48.782Z,18.90
2018-04-14T17:43:23.209Z,18.60
2018-04-14T17:47:57.205Z,18.30
2018-04-14T17:52:30.407Z,18.20
2018-04-14T17:57:05.092Z,18.10
2018-04-14T18:01:38.406Z,17.90
2018-04-14T18:06:12.577Z,17.90
2018-04-14T18:10:46.960Z,17.90
2018-04-14T18:15:21.001Z,17.80
2018-04-14T18:19:56.064Z,17.70
2018-04-14T18:24:30.790Z,17.60
2018-04-14T18:29:05.223Z,17.40
2018-04-14T18:33:38.852Z,17.30
2018-04-14T18:38:12.461Z,17.20
2018-04-14T18:42:47.307Z,16.70
2018-04-14T18:47:20.946Z,16.60
2018-04-14T18:51:54.848Z,16.50
2018-04-14T18:56:28.631Z,16.30
2018-04-14T19:01:02.175Z,16.50
2018-04-14T19:05:39.282Z,16.30
2018-04-14T19:10:13.267Z,16.20
2018-04-14T19:14:46.494Z,16.10
2018-04-14T19:19:19.709Z,16.20
2018-04-14T19:23:53.714Z,16.10
2018-04-14T19:28:27.018Z,16.10
2018-04-14T19:33:00.228Z,16.20
2018-04-14T19:37:34.263Z,16.10
2018-04-14T19:42:09.530Z,16.00
2018-04-14T19:46:42.986Z,16.00
2018-04-14T19:51:16.209Z,15.90
2018-04-14T19:55:49.788Z,15.60
2018-04-14T20:00:27.316Z,15.60
2018-04-14T20:05:05.587Z,15.50
2018-04-14T20:09:39.813Z,15.50
2018-04-14T20:14:13.072Z,15.40
2018-04-14T20:18:46.338Z,15.30
2018-04-14T20:23:19.659Z,15.20
2018-04-14T20:27:54.289Z,15.10
2018-04-14T20:32:27.610Z,15.00
2018-04-14T20:37:01.962Z,14.90
2018-04-14T20:41:36.123Z,14.80
2018-04-14T20:46:10.817Z,14.80
2018-04-14T20:50:44.132Z,14.90
2018-04-14T20:55:17.562Z,15.00
2018-04-14T20:59:50.949Z,15.10
2018-04-14T21:04:25.381Z,15.10
2018-04-14T21:08:58.691Z,15.10
2018-04-14T21:13:32.932Z,14.80
2018-04-14T21:18:08.647Z,14.70
2018-04-14T21:22:42.742Z,14.50
2018-04-14T21:27:15.987Z,14.40
2018-04-14T21:31:49.215Z,14.20
2018-04-14T21:36:23.201Z,14.10
2018-04-14T21:40:56.594Z,14.00
2018-04-14T21:45:31.796Z,14.10
2018-04-14T21:50:05.824Z,14.00
2018-04-14T21:54:39.244Z,13.90
2018-04-14T21:59:13.476Z,14.00
2018-04-14T22:03:47.478Z,14.20
2018-04-14T22:08:20.676Z,14.10
2018-04-14T22:12:54.248Z,14.20
2018-04-14T22:17:27.602Z,14.10
2018-04-14T22:22:00.859Z,13.80
2018-04-14T22:26:34.092Z,13.70
2018-04-14T22:31:07.317Z,13.60
2018-04-14T22:35:40.519Z,13.70
2018-04-14T22:40:13.760Z,13.60
2018-04-14T22:44:47.786Z,13.80
2018-04-14T22:49:21.042Z,13.70
2018-04-14T22:53:54.295Z,13.80
2018-04-14T22:58:27.627Z,13.90
2018-04-14T23:03:01.644Z,14.00
2018-04-14T23:07:34.905Z,13.90
2018-04-14T23:12:08.180Z,13.80
2018-04-14T23:16:41.386Z,13.60
2018-04-14T23:21:15.378Z,13.60
2018-04-14T23:25:48.616Z,13.50
2018-04-14T23:30:22.600Z,13.40
2018-04-14T23:34:56.049Z,13.40
2018-04-14T23:39:30.069Z,13.50
2018-04-14T23:44:04.038Z,13.50
2018-04-14T23:48:37.251Z,13.50
2018-04-14T23:53:10.625Z,13.50
2018-04-14T23:57:44.583Z,13.30
